createdAt,value
2017-05-08T00:00:41.973Z,3.77
2017-05-08T00:01:42.583Z,3.63
2017-05-08T00:02:43.191Z,3.70
2017-05-08T00:03:43.828Z,3.66
2017-05-08T00:04:44.471Z,3.65
2017-05-08T00:05:45.078Z,3.63
2017-05-08T00:06:45.685Z,3.70
2017-05-08T00:07:46.299Z,3.65
2017-05-08T00:08:46.906Z,3.70
2017-05-08T00:09:47.550Z,3.68
2017-05-08T00:10:48.154Z,3.73
2017-05-08T00:11:48.762Z,3.70
2017-05-08T00:12:49.370Z,3.65
2017-05-08T00:13:49.982Z,3.68
2017-05-08T00:14:50.587Z,3.62
2017-05-08T00:15:51.228Z,3.65
2017-05-08T00:16:51.843Z,3.63
2017-05-08T00:17:52.445Z,3.65
2017-05-08T00:18:53.060Z,3.63
2017-05-08T00:19:53.667Z,3.60
2017-05-08T00:20:54.275Z,3.69
2017-05-08T00:21:54.883Z,3.69
2017-05-08T00:22:55.489Z,3.65
2017-05-08T00:23:56.099Z,3.62
2017-05-08T00:24:56.739Z,3.60
2017-05-08T00:25:57.346Z,3.60
2017-05-08T00:26:57.960Z,3.70
2017-05-08T00:27:58.565Z,3.68
2017-05-08T00:28:59.174Z,3.74
2017-05-08T00:29:59.781Z,3.76
2017-05-08T00:31:00.388Z,3.69
2017-05-08T00:32:01.002Z,3.69
2017-05-08T00:33:01.642Z,3.68
2017-05-08T00:34:02.251Z,3.70
2017-05-08T00:35:02.861Z,3.66
2017-05-08T00:36:03.470Z,3.70
2017-05-08T00:37:04.078Z,3.69
2017-05-08T00:38:04.685Z,3.65
2017-05-08T00:39:05.299Z,3.68
2017-05-08T00:40:05.904Z,3.69
2017-05-08T00:41:06.514Z,3.74
2017-05-08T00:42:07.118Z,3.70
2017-05-08T00:43:07.726Z,3.69
2017-05-08T00:44:08.365Z,3.70
2017-05-08T00:45:08.973Z,3.60
2017-05-08T00:46:09.580Z,3.56
2017-05-08T00:47:10.189Z,3.51
2017-05-08T00:48:10.795Z,3.51
2017-05-08T00:49:11.403Z,3.45
2017-05-08T00:50:12.011Z,3.44
2017-05-08T00:51:12.620Z,3.42
2017-05-08T00:52:13.235Z,3.40
2017-05-08T00:53:13.845Z,3.37
2017-05-08T00:54:14.456Z,3.31
2017-05-08T00:55:15.067Z,3.31
2017-05-08T00:56:15.677Z,3.14
2017-05-08T00:57:16.318Z,3.28
2017-05-08T00:58:16.923Z,3.26
2017-05-08T00:59:17.531Z,3.21
2017-05-08T01:00:18.143Z,3.26
2017-05-08T01:01:18.749Z,3.29
2017-05-08T01:02:19.390Z,3.18
2017-05-08T01:03:19.999Z,3.16
2017-05-08T01:04:20.611Z,3.14
2017-05-08T01:05:21.219Z,3.14
2017-05-08T01:06:21.824Z,3.21
2017-05-08T01:07:22.481Z,3.10
2017-05-08T01:08:23.090Z,3.10
2017-05-08T01:09:23.697Z,2.97
2017-05-08T01:10:24.336Z,2.97
2017-05-08T01:11:24.945Z,2.95
2017-05-08T01:12:25.601Z,3.04
2017-05-08T01:13:26.208Z,3.00
2017-05-08T01:14:26.816Z,2.92
2017-05-08T01:15:27.431Z,3.07
2017-05-08T01:16:28.037Z,3.01
2017-05-08T01:17:28.694Z,3.03
2017-05-08T01:18:29.302Z,3.01
2017-05-08T01:19:29.909Z,3.00
2017-05-08T01:20:30.522Z,3.01
2017-05-08T01:21:31.127Z,3.08
2017-05-08T01:22:31.783Z,3.07
2017-05-08T01:23:32.392Z,3.04
2017-05-08T01:24:33.000Z,3.14
2017-05-08T01:25:33.611Z,3.11
2017-05-08T01:26:34.220Z,3.08
2017-05-08T01:27:34.876Z,3.14
2017-05-08T01:28:35.482Z,3.14
2017-05-08T01:29:36.095Z,3.07
2017-05-08T01:30:36.702Z,2.97
2017-05-08T01:31:37.310Z,2.98
2017-05-08T01:32:37.967Z,3.00
2017-05-08T01:33:38.615Z,2.93
2017-05-08T01:34:39.219Z,2.97
2017-05-08T01:35:39.859Z,2.93
2017-05-08T01:36:40.466Z,2.87
2017-05-08T01:37:41.164Z,2.90
2017-05-08T01:38:41.770Z,2.87
2017-05-08T01:39:42.415Z,2.85
2017-05-08T01:40:43.020Z,2.86
2017-05-08T01:41:43.628Z,2.83
2017-05-08T01:42:44.290Z,2.77
2017-05-08T01:43:44.932Z,2.79
2017-05-08T01:44:45.545Z,2.72
2017-05-08T01:45:46.153Z,2.71
2017-05-08T01:46:46.765Z,2.75
2017-05-08T01:47:47.419Z,2.72
2017-05-08T01:48:48.027Z,2.72
2017-05-08T01:49:48.637Z,2.83
2017-05-08T01:50:49.242Z,2.72
2017-05-08T01:51:49.850Z,2.62
2017-05-08T01:52:50.538Z,2.62
2017-05-08T01:53:51.151Z,2.57
2017-05-08T01:54:51.755Z,2.56
2017-05-08T01:55:52.395Z,2.61
2017-05-08T01:56:53.008Z,2.57
2017-05-08T01:57:53.666Z,2.53
2017-05-08T01:58:54.277Z,2.50
2017-05-08T01:59:54.882Z,2.51
2017-05-08T02:00:55.490Z,2.46
2017-05-08T02:01:56.102Z,2.54
2017-05-08T02:02:56.761Z,2.46
2017-05-08T02:03:57.371Z,2.47
2017-05-08T02:04:57.982Z,2.56
2017-05-08T02:05:58.622Z,2.54
2017-05-08T02:06:59.229Z,2.57
2017-05-08T02:07:59.891Z,2.56
2017-05-08T02:09:00.500Z,2.60
2017-05-08T02:10:01.142Z,2.60
2017-05-08T02:11:01.748Z,2.57
2017-05-08T02:12:02.354Z,2.51
2017-05-08T02:13:03.010Z,2.69
2017-05-08T02:14:03.619Z,2.69
2017-05-08T02:15:04.228Z,2.69
2017-05-08T02:16:04.841Z,2.71
2017-05-08T02:17:05.449Z,2.75
2017-05-08T02:18:06.103Z,2.62
2017-05-08T02:19:06.709Z,2.56
2017-05-08T02:20:07.317Z,2.56
2017-05-08T02:21:07.923Z,2.57
2017-05-08T02:22:08.536Z,2.53
2017-05-08T02:23:09.192Z,2.47
2017-05-08T02:24:09.839Z,2.39
2017-05-08T02:25:10.444Z,2.49
2017-05-08T02:26:11.051Z,2.44
2017-05-08T02:27:11.658Z,2.42
2017-05-08T02:28:12.267Z,2.47
2017-05-08T02:29:12.872Z,2.43
2017-05-08T02:30:13.480Z,2.44
2017-05-08T02:31:14.087Z,2.38
2017-05-08T02:32:14.694Z,2.43
2017-05-08T02:33:15.357Z,2.46
2017-05-08T02:34:15.997Z,2.36
2017-05-08T02:35:16.610Z,2.36
2017-05-08T02:36:17.212Z,2.38
2017-05-08T02:37:17.819Z,2.42
2017-05-08T02:38:18.425Z,2.46
2017-05-08T02:39:19.038Z,2.49
2017-05-08T02:40:19.641Z,2.49
2017-05-08T02:41:20.249Z,2.50
2017-05-08T02:42:20.855Z,2.53
2017-05-08T02:43:21.461Z,2.56
2017-05-08T02:44:22.068Z,2.57
2017-05-08T02:45:22.677Z,2.54
2017-05-08T02:46:23.285Z,2.57
2017-05-08T02:47:23.892Z,2.47
2017-05-08T02:48:24.499Z,2.54
2017-05-08T02:49:25.105Z,2.57
2017-05-08T02:50:25.712Z,2.56
2017-05-08T02:51:26.319Z,2.62
2017-05-08T02:52:26.929Z,2.62
2017-05-08T02:53:27.540Z,2.56
2017-05-08T02:54:28.144Z,2.61
2017-05-08T02:55:28.751Z,2.61
2017-05-08T02:56:29.357Z,2.61
2017-05-08T02:57:29.965Z,2.72
2017-05-08T02:58:30.575Z,2.65
2017-05-08T02:59:31.181Z,2.75
2017-05-08T03:00:31.794Z,2.69
2017-05-08T03:01:32.406Z,2.82
2017-05-08T03:02:33.015Z,2.77
2017-05-08T03:03:33.624Z,2.77
2017-05-08T03:04:34.235Z,2.82
2017-05-08T03:05:34.840Z,2.79
2017-05-08T03:06:35.448Z,2.79
2017-05-08T03:07:36.062Z,2.75
2017-05-08T03:08:36.722Z,2.77
2017-05-08T03:09:37.332Z,2.72
2017-05-08T03:10:37.936Z,2.79
2017-05-08T03:11:38.543Z,2.71
2017-05-08T03:12:39.158Z,2.72
2017-05-08T03:13:39.763Z,2.80
2017-05-08T03:14:40.404Z,2.86
2017-05-08T03:15:41.012Z,2.87
2017-05-08T03:16:41.620Z,2.87
2017-05-08T03:17:42.227Z,2.77
2017-05-08T03:18:42.833Z,2.75
2017-05-08T03:19:43.447Z,2.79
2017-05-08T03:20:44.050Z,2.65
2017-05-08T03:21:44.657Z,2.79
2017-05-08T03:22:45.263Z,2.75
2017-05-08T03:23:45.903Z,2.69
2017-05-08T03:24:46.510Z,2.61
2017-05-08T03:25:47.118Z,2.51
2017-05-08T03:26:47.725Z,2.50
2017-05-08T03:27:48.334Z,2.53
2017-05-08T03:28:48.945Z,2.56
2017-05-08T03:29:49.586Z,2.54
2017-05-08T03:30:50.194Z,2.50
2017-05-08T03:31:50.802Z,2.50
2017-05-08T03:32:51.412Z,2.42
2017-05-08T03:33:52.018Z,2.46
2017-05-08T03:34:52.625Z,2.35
2017-05-08T03:35:53.234Z,2.42
2017-05-08T03:36:53.854Z,2.35
2017-05-08T03:37:54.448Z,2.36
2017-05-08T03:38:55.054Z,2.38
2017-05-08T03:39:55.667Z,2.33
2017-05-08T03:40:56.276Z,2.36
2017-05-08T03:41:56.880Z,2.38
2017-05-08T03:42:57.489Z,2.33
2017-05-08T03:43:58.099Z,2.31
2017-05-08T03:44:58.705Z,2.26
2017-05-08T03:45:59.317Z,2.25
2017-05-08T03:46:59.927Z,2.29
2017-05-08T03:48:00.537Z,2.29
2017-05-08T03:49:01.140Z,2.26
2017-05-08T03:50:01.747Z,2.25
2017-05-08T03:51:02.360Z,2.29
2017-05-08T03:52:02.965Z,2.26
2017-05-08T03:53:03.573Z,2.26
2017-05-08T03:54:04.178Z,2.26
2017-05-08T03:55:04.785Z,2.35
2017-05-08T03:56:05.393Z,2.33
2017-05-08T03:57:06.001Z,2.32
2017-05-08T03:58:06.607Z,2.38
2017-05-08T03:59:07.264Z,2.36
2017-05-08T04:00:07.907Z,2.42
2017-05-08T04:01:08.513Z,2.35
2017-05-08T04:02:09.122Z,2.39
2017-05-08T04:03:09.735Z,2.42
2017-05-08T04:04:10.339Z,2.42
2017-05-08T04:05:10.946Z,2.38
2017-05-08T04:06:11.558Z,2.38
2017-05-08T04:07:12.164Z,2.42
2017-05-08T04:08:12.770Z,2.42
2017-05-08T04:09:13.383Z,2.38
2017-05-08T04:10:13.986Z,2.39
2017-05-08T04:11:14.592Z,2.43
2017-05-08T04:12:15.205Z,2.35
2017-05-08T04:13:15.810Z,2.33
2017-05-08T04:14:16.424Z,2.32
2017-05-08T04:15:17.028Z,2.38
2017-05-08T04:16:17.641Z,2.33
2017-05-08T04:17:18.245Z,2.35
2017-05-08T04:18:18.856Z,2.33
2017-05-08T04:19:19.461Z,2.32
2017-05-08T04:20:20.069Z,2.31
2017-05-08T04:21:20.674Z,2.25
2017-05-08T04:22:21.281Z,2.22
2017-05-08T04:23:21.889Z,2.28
2017-05-08T04:24:22.554Z,2.25
2017-05-08T04:25:23.193Z,2.32
2017-05-08T04:26:23.834Z,2.28
2017-05-08T04:27:24.439Z,2.24
2017-05-08T04:28:25.051Z,2.22
2017-05-08T04:29:25.661Z,2.20
2017-05-08T04:30:26.271Z,2.29
2017-05-08T04:31:26.880Z,2.32
2017-05-08T04:32:27.485Z,2.32
2017-05-08T04:33:28.093Z,2.33
2017-05-08T04:34:28.702Z,2.28
2017-05-08T04:35:29.312Z,2.29
2017-05-08T04:36:29.922Z,2.29
2017-05-08T04:37:30.528Z,2.33
2017-05-08T04:38:31.137Z,2.36
2017-05-08T04:39:31.743Z,2.32
2017-05-08T04:40:32.354Z,2.32
2017-05-08T04:41:32.993Z,2.25
2017-05-08T04:42:33.600Z,2.24
2017-05-08T04:43:34.208Z,2.25
2017-05-08T04:44:34.866Z,2.18
2017-05-08T04:45:35.474Z,2.25
2017-05-08T04:46:36.086Z,2.24
2017-05-08T04:47:36.724Z,2.26
2017-05-08T04:48:37.365Z,2.20
2017-05-08T04:49:37.978Z,2.25
2017-05-08T04:50:38.583Z,2.33
2017-05-08T04:51:39.197Z,2.33
2017-05-08T04:52:39.800Z,2.39
2017-05-08T04:53:40.409Z,2.33
2017-05-08T04:54:41.017Z,2.42
2017-05-08T04:55:41.624Z,2.36
2017-05-08T04:56:42.232Z,2.36
2017-05-08T04:57:42.843Z,2.35
2017-05-08T04:58:43.451Z,2.36
2017-05-08T04:59:44.060Z,2.36
2017-05-08T05:00:44.669Z,2.44
2017-05-08T05:01:45.278Z,2.47
2017-05-08T05:02:45.885Z,2.47
2017-05-08T05:03:46.498Z,2.44
2017-05-08T05:04:47.111Z,2.49
2017-05-08T05:05:47.718Z,2.49
2017-05-08T05:06:48.324Z,2.51
2017-05-08T05:07:48.932Z,2.47
2017-05-08T05:08:49.541Z,2.53
2017-05-08T05:09:50.151Z,2.54
2017-05-08T05:10:50.757Z,2.50
2017-05-08T05:11:51.398Z,2.54
2017-05-08T05:12:52.005Z,2.51
2017-05-08T05:13:52.619Z,2.65
2017-05-08T05:14:53.263Z,2.54
2017-05-08T05:15:53.873Z,2.62
2017-05-08T05:16:54.480Z,2.60
2017-05-08T05:17:55.121Z,2.60
2017-05-08T05:18:55.729Z,2.57
2017-05-08T05:19:56.339Z,2.53
2017-05-08T05:20:56.948Z,2.56
2017-05-08T05:21:57.554Z,2.54
2017-05-08T05:22:58.164Z,2.56
2017-05-08T05:23:58.781Z,2.56
2017-05-08T05:24:59.389Z,2.61
2017-05-08T05:25:59.993Z,2.60
2017-05-08T05:27:00.610Z,2.61
2017-05-08T05:28:01.215Z,2.57
2017-05-08T05:29:01.822Z,2.62
2017-05-08T05:30:02.465Z,2.57
2017-05-08T05:31:03.107Z,2.57
2017-05-08T05:32:03.716Z,2.57
2017-05-08T05:33:04.363Z,2.60
2017-05-08T05:34:04.969Z,2.64
2017-05-08T05:35:05.627Z,2.69
2017-05-08T05:36:06.236Z,2.61
2017-05-08T05:37:06.849Z,2.71
2017-05-08T05:38:07.455Z,2.71
2017-05-08T05:39:08.065Z,2.69
2017-05-08T05:40:08.674Z,2.69
2017-05-08T05:41:09.282Z,2.62
2017-05-08T05:42:09.930Z,2.61
2017-05-08T05:43:10.541Z,2.64
2017-05-08T05:44:11.147Z,2.56
2017-05-08T05:45:11.753Z,2.56
2017-05-08T05:46:12.362Z,2.67
2017-05-08T05:47:12.978Z,2.57
2017-05-08T05:48:13.583Z,2.62
2017-05-08T05:49:14.194Z,2.56
2017-05-08T05:50:14.800Z,2.54
2017-05-08T05:51:15.412Z,2.53
2017-05-08T05:52:16.018Z,2.56
2017-05-08T05:53:16.625Z,2.51
2017-05-08T05:54:17.240Z,2.60
2017-05-08T05:55:17.894Z,2.61
2017-05-08T05:56:18.503Z,2.62
2017-05-08T05:57:19.114Z,2.49
2017-05-08T05:58:19.722Z,2.60
2017-05-08T05:59:20.331Z,2.56
2017-05-08T06:00:20.940Z,2.56
2017-05-08T06:01:21.548Z,2.60
2017-05-08T06:02:22.155Z,2.61
2017-05-08T06:03:22.764Z,2.56
2017-05-08T06:04:23.373Z,2.61
2017-05-08T06:05:23.984Z,2.57
2017-05-08T06:06:24.632Z,2.53
2017-05-08T06:07:25.274Z,2.53
2017-05-08T06:08:25.883Z,2.53
2017-05-08T06:09:26.491Z,2.49
2017-05-08T06:10:27.098Z,2.50
2017-05-08T06:11:27.708Z,2.61
2017-05-08T06:12:28.317Z,2.57
2017-05-08T06:13:28.929Z,2.60
2017-05-08T06:14:29.537Z,2.57
2017-05-08T06:15:30.208Z,2.64
2017-05-08T06:16:30.808Z,2.72
2017-05-08T06:17:31.419Z,2.75
2017-05-08T06:18:32.026Z,2.77
2017-05-08T06:19:32.633Z,2.75
2017-05-08T06:20:33.244Z,2.71
2017-05-08T06:21:33.850Z,2.77
2017-05-08T06:22:34.459Z,2.72
2017-05-08T06:23:35.075Z,2.80
2017-05-08T06:24:35.688Z,2.75
2017-05-08T06:25:36.376Z,2.74
2017-05-08T06:26:36.986Z,2.68
2017-05-08T06:27:37.593Z,2.71
2017-05-08T06:28:38.204Z,2.69
2017-05-08T06:29:38.817Z,2.71
2017-05-08T06:30:39.427Z,2.69
2017-05-08T06:31:40.036Z,2.65
2017-05-08T06:32:40.649Z,2.71
2017-05-08T06:33:41.259Z,2.83
2017-05-08T06:34:41.869Z,2.77
2017-05-08T06:35:42.531Z,2.72
2017-05-08T06:36:43.140Z,2.79
2017-05-08T06:37:43.757Z,2.72
2017-05-08T06:38:44.370Z,2.85
2017-05-08T06:39:44.977Z,2.87
2017-05-08T06:40:45.640Z,2.77
2017-05-08T06:41:46.250Z,2.89
2017-05-08T06:42:46.863Z,2.97
2017-05-08T06:43:47.474Z,2.92
2017-05-08T06:44:48.084Z,2.93
2017-05-08T06:45:48.698Z,2.89
2017-05-08T06:46:49.339Z,3.00
2017-05-08T06:47:49.951Z,2.98
2017-05-08T06:48:50.567Z,3.01
2017-05-08T06:49:51.174Z,3.14
2017-05-08T06:50:51.792Z,3.10
2017-05-08T06:51:52.400Z,3.11
2017-05-08T06:52:53.017Z,3.18
2017-05-08T06:53:53.623Z,3.21
2017-05-08T06:54:54.235Z,3.21
2017-05-08T06:55:54.851Z,3.18
2017-05-08T06:56:55.458Z,3.11
2017-05-08T06:57:56.077Z,3.29
2017-05-08T06:58:56.720Z,3.28
2017-05-08T06:59:57.331Z,3.34
2017-05-08T07:00:57.940Z,3.36
2017-05-08T07:01:58.556Z,3.51
2017-05-08T07:02:59.169Z,3.48
2017-05-08T07:03:59.779Z,3.59
2017-05-08T07:05:00.391Z,3.58
2017-05-08T07:06:01.000Z,3.56
2017-05-08T07:07:01.612Z,3.63
2017-05-08T07:08:02.224Z,3.62
2017-05-08T07:09:02.833Z,3.73
2017-05-08T07:10:03.443Z,3.65
2017-05-08T07:11:04.105Z,3.70
2017-05-08T07:12:04.715Z,3.63
2017-05-08T07:13:05.364Z,3.62
2017-05-08T07:14:06.012Z,3.66
2017-05-08T07:15:06.621Z,3.70
2017-05-08T07:16:07.263Z,3.74
2017-05-08T07:17:07.879Z,3.70
2017-05-08T07:18:08.497Z,3.69
2017-05-08T07:19:09.103Z,3.70
2017-05-08T07:20:09.715Z,3.69
2017-05-08T07:21:10.325Z,3.60
2017-05-08T07:22:10.943Z,3.60
2017-05-08T07:23:11.549Z,3.66
2017-05-08T07:24:12.160Z,3.70
2017-05-08T07:25:12.771Z,3.66
2017-05-08T07:26:13.389Z,3.66
2017-05-08T07:27:13.998Z,3.73
2017-05-08T07:28:14.610Z,3.62
2017-05-08T07:29:15.220Z,3.74
2017-05-08T07:30:15.861Z,3.74
2017-05-08T07:31:16.472Z,3.60
2017-05-08T07:32:17.084Z,3.70
2017-05-08T07:33:17.701Z,3.60
2017-05-08T07:34:18.310Z,3.60
2017-05-08T07:35:18.959Z,3.59
2017-05-08T07:36:19.566Z,3.65
2017-05-08T07:37:20.177Z,3.50
2017-05-08T07:38:20.788Z,3.55
2017-05-08T07:39:21.397Z,3.53
2017-05-08T07:40:22.015Z,3.58
2017-05-08T07:41:22.626Z,3.60
2017-05-08T07:42:23.271Z,3.69
2017-05-08T07:43:23.880Z,3.73
2017-05-08T07:44:24.497Z,3.69
2017-05-08T07:45:25.101Z,3.70
2017-05-08T07:46:25.712Z,3.60
2017-05-08T07:47:26.322Z,3.51
2017-05-08T07:48:26.945Z,3.45
2017-05-08T07:49:27.549Z,3.34
2017-05-08T07:50:28.158Z,3.44
2017-05-08T07:51:28.770Z,3.50
2017-05-08T07:52:29.380Z,3.48
2017-05-08T07:53:29.994Z,3.48
2017-05-08T07:54:30.605Z,3.51
2017-05-08T07:55:31.216Z,3.65
2017-05-08T07:56:31.826Z,3.76
2017-05-08T07:57:32.437Z,3.78
2017-05-08T07:58:33.047Z,3.76
2017-05-08T07:59:33.658Z,3.88
2017-05-08T08:00:34.308Z,3.94
2017-05-08T08:01:34.921Z,4.05
2017-05-08T08:02:35.531Z,4.20
2017-05-08T08:03:36.175Z,4.22
2017-05-08T08:04:36.785Z,4.41
2017-05-08T08:05:37.403Z,4.34
2017-05-08T08:06:38.010Z,4.45
2017-05-08T08:07:38.621Z,4.62
2017-05-08T08:08:39.234Z,4.82
2017-05-08T08:09:39.851Z,5.05
2017-05-08T08:10:40.460Z,5.07
2017-05-08T08:11:41.071Z,5.18
2017-05-08T08:12:41.682Z,5.17
2017-05-08T08:13:42.294Z,5.23
2017-05-08T08:14:42.906Z,5.36
2017-05-08T08:15:43.520Z,5.30
2017-05-08T08:16:44.185Z,5.35
2017-05-08T08:17:44.793Z,5.29
2017-05-08T08:18:45.403Z,5.41
2017-05-08T08:19:46.019Z,5.46
2017-05-08T08:20:46.631Z,5.64
2017-05-08T08:21:47.298Z,5.82
2017-05-08T08:22:47.907Z,5.90
2017-05-08T08:23:48.519Z,5.90
2017-05-08T08:24:49.135Z,6.05
2017-05-08T08:25:49.752Z,5.94
2017-05-08T08:26:50.412Z,5.94
2017-05-08T08:27:51.025Z,5.87
2017-05-08T08:28:51.642Z,5.79
2017-05-08T08:29:52.252Z,5.71
2017-05-08T08:30:52.862Z,5.66
2017-05-08T08:31:53.479Z,5.48
2017-05-08T08:32:54.088Z,5.35
2017-05-08T08:33:54.700Z,5.35
2017-05-08T08:34:55.313Z,5.35
2017-05-08T08:35:55.927Z,5.41
2017-05-08T08:36:56.543Z,5.47
2017-05-08T08:37:57.153Z,5.53
2017-05-08T08:38:57.770Z,5.54
2017-05-08T08:39:58.379Z,5.48
2017-05-08T08:40:58.991Z,5.56
2017-05-08T08:41:59.607Z,5.72
2017-05-08T08:43:00.217Z,5.93
2017-05-08T08:44:00.830Z,5.98
2017-05-08T08:45:01.441Z,6.05
2017-05-08T08:46:02.059Z,6.12
2017-05-08T08:47:02.670Z,6.08
2017-05-08T08:48:03.283Z,6.05
2017-05-08T08:49:03.900Z,6.16
2017-05-08T08:50:04.512Z,6.38
2017-05-08T08:51:05.123Z,6.39
2017-05-08T08:52:05.734Z,6.38
2017-05-08T08:53:06.349Z,6.27
2017-05-08T08:54:06.961Z,6.09
2017-05-08T08:55:07.573Z,5.76
2017-05-08T08:56:08.185Z,5.69
2017-05-08T08:57:08.797Z,5.80
2017-05-08T08:58:09.409Z,5.90
2017-05-08T08:59:10.026Z,6.09
2017-05-08T09:00:10.638Z,6.26
2017-05-08T09:01:11.249Z,6.30
2017-05-08T09:02:11.861Z,6.46
2017-05-08T09:03:12.506Z,6.39
2017-05-08T09:04:13.120Z,6.41
2017-05-08T09:05:13.737Z,6.33
2017-05-08T09:06:14.348Z,6.31
2017-05-08T09:07:15.010Z,6.41
2017-05-08T09:08:15.624Z,6.48
2017-05-08T09:09:16.237Z,6.63
2017-05-08T09:10:16.848Z,6.72
2017-05-08T09:11:17.460Z,6.75
2017-05-08T09:12:18.075Z,6.93
2017-05-08T09:13:18.689Z,6.92
2017-05-08T09:14:19.301Z,6.92
2017-05-08T09:15:19.915Z,6.92
2017-05-08T09:16:20.564Z,6.89
2017-05-08T09:17:21.226Z,6.81
2017-05-08T09:18:21.837Z,6.72
2017-05-08T09:19:22.458Z,6.79
2017-05-08T09:20:23.073Z,6.87
2017-05-08T09:21:23.684Z,6.87
2017-05-08T09:22:24.348Z,6.89
2017-05-08T09:23:24.962Z,6.79
2017-05-08T09:24:25.583Z,6.79
2017-05-08T09:25:26.199Z,6.59
2017-05-08T09:26:26.815Z,6.57
2017-05-08T09:27:27.474Z,6.31
2017-05-08T09:28:28.090Z,6.39
2017-05-08T09:29:28.706Z,6.51
2017-05-08T09:30:29.318Z,6.63
2017-05-08T09:31:29.930Z,6.67
2017-05-08T09:32:30.575Z,6.70
2017-05-08T09:33:31.186Z,6.66
2017-05-08T09:34:31.798Z,6.63
2017-05-08T09:35:32.415Z,6.49
2017-05-08T09:36:33.028Z,6.67
2017-05-08T09:37:33.731Z,6.64
2017-05-08T09:38:34.341Z,6.70
2017-05-08T09:39:34.955Z,6.77
2017-05-08T09:40:35.573Z,6.79
2017-05-08T09:41:36.184Z,6.84
2017-05-08T09:42:36.831Z,6.96
2017-05-08T09:43:37.444Z,6.95
2017-05-08T09:44:38.056Z,6.95
2017-05-08T09:45:38.680Z,6.92
2017-05-08T09:46:39.287Z,6.81
2017-05-08T09:47:39.906Z,6.74
2017-05-08T09:48:40.517Z,6.67
2017-05-08T09:49:41.130Z,6.63
2017-05-08T09:50:41.743Z,6.64
2017-05-08T09:51:42.361Z,6.72
2017-05-08T09:52:42.972Z,6.81
2017-05-08T09:53:43.585Z,6.69
2017-05-08T09:54:44.201Z,6.75
2017-05-08T09:55:44.814Z,6.70
2017-05-08T09:56:45.427Z,6.70
2017-05-08T09:57:46.046Z,6.67
2017-05-08T09:58:46.656Z,6.77
2017-05-08T09:59:47.275Z,6.70
2017-05-08T10:00:47.886Z,6.72
2017-05-08T10:01:48.503Z,6.75
2017-05-08T10:02:49.114Z,6.79
2017-05-08T10:03:49.761Z,6.88
2017-05-08T10:04:50.374Z,6.82
2017-05-08T10:05:50.993Z,6.84
2017-05-08T10:06:51.638Z,6.84
2017-05-08T10:07:52.263Z,6.87
2017-05-08T10:08:52.871Z,6.84
2017-05-08T10:09:53.485Z,6.85
2017-05-08T10:10:54.099Z,6.77
2017-05-08T10:11:54.711Z,6.87
2017-05-08T10:12:55.322Z,6.92
2017-05-08T10:13:55.937Z,6.89
2017-05-08T10:14:56.550Z,6.89
2017-05-08T10:15:57.162Z,6.92
2017-05-08T10:16:57.777Z,6.89
2017-05-08T10:17:58.388Z,6.85
2017-05-08T10:18:59.002Z,6.87
2017-05-08T10:19:59.615Z,6.95
2017-05-08T10:21:00.263Z,6.97
2017-05-08T10:22:00.877Z,7.06
2017-05-08T10:23:01.541Z,7.20
2017-05-08T10:24:02.154Z,7.28
2017-05-08T10:25:02.804Z,7.31
2017-05-08T10:26:03.414Z,7.32
2017-05-08T10:27:04.027Z,7.33
2017-05-08T10:28:04.639Z,7.33
2017-05-08T10:29:05.286Z,7.35
2017-05-08T10:30:05.909Z,7.24
2017-05-08T10:31:06.555Z,7.06
2017-05-08T10:32:07.169Z,7.14
2017-05-08T10:33:07.830Z,7.07
2017-05-08T10:34:08.450Z,7.06
2017-05-08T10:35:09.067Z,7.10
2017-05-08T10:36:09.685Z,7.28
2017-05-08T10:37:10.294Z,7.06
2017-05-08T10:38:10.914Z,7.10
2017-05-08T10:39:11.529Z,7.15
2017-05-08T10:40:12.139Z,7.03
2017-05-08T10:41:12.760Z,7.03
2017-05-08T10:42:13.370Z,6.99
2017-05-08T10:43:13.984Z,6.99
2017-05-08T10:44:14.596Z,7.06
2017-05-08T10:45:15.210Z,7.21
2017-05-08T10:46:15.824Z,7.20
2017-05-08T10:47:16.446Z,7.23
2017-05-08T10:48:17.092Z,7.20
2017-05-08T10:49:17.705Z,7.17
2017-05-08T10:50:18.319Z,7.23
2017-05-08T10:51:18.931Z,7.20
2017-05-08T10:52:19.544Z,7.10
2017-05-08T10:53:20.165Z,7.07
2017-05-08T10:54:20.777Z,7.15
2017-05-08T10:55:21.394Z,7.14
2017-05-08T10:56:22.005Z,7.29
2017-05-08T10:57:22.625Z,7.20
2017-05-08T10:58:23.235Z,7.36
2017-05-08T10:59:23.855Z,7.53
2017-05-08T11:00:24.471Z,7.47
2017-05-08T11:01:25.117Z,7.60
2017-05-08T11:02:25.737Z,7.66
2017-05-08T11:03:26.347Z,7.83
2017-05-08T11:04:26.964Z,7.82
2017-05-08T11:05:27.576Z,7.93
2017-05-08T11:06:28.191Z,8.05
2017-05-08T11:07:28.809Z,8.13
2017-05-08T11:08:29.422Z,8.26
2017-05-08T11:09:30.040Z,8.41
2017-05-08T11:10:30.654Z,8.49
2017-05-08T11:11:31.270Z,8.55
2017-05-08T11:12:31.884Z,8.69
2017-05-08T11:13:32.530Z,8.88
2017-05-08T11:14:33.146Z,9.10
2017-05-08T11:15:33.761Z,9.21
2017-05-08T11:16:34.374Z,9.36
2017-05-08T11:17:34.990Z,9.34
2017-05-08T11:18:35.605Z,9.47
2017-05-08T11:19:36.221Z,9.69
2017-05-08T11:20:36.840Z,9.80
2017-05-08T11:21:37.450Z,9.94
2017-05-08T11:22:38.066Z,10.13
2017-05-08T11:23:38.684Z,10.13
2017-05-08T11:24:39.304Z,10.25
2017-05-08T11:25:39.919Z,10.15
2017-05-08T11:26:40.541Z,10.10
2017-05-08T11:27:41.155Z,10.02
2017-05-08T11:28:41.822Z,9.95
2017-05-08T11:29:42.438Z,9.87
2017-05-08T11:30:43.085Z,9.77
2017-05-08T11:31:43.703Z,9.76
2017-05-08T11:32:44.323Z,9.77
2017-05-08T11:33:44.936Z,9.66
2017-05-08T11:34:45.591Z,9.62
2017-05-08T11:35:46.205Z,9.69
2017-05-08T11:36:46.821Z,9.84
2017-05-08T11:37:47.433Z,9.92
2017-05-08T11:38:48.101Z,9.95
2017-05-08T11:39:48.721Z,9.87
2017-05-08T11:40:49.346Z,9.92
2017-05-08T11:41:49.995Z,9.95
2017-05-08T11:42:50.645Z,9.94
2017-05-08T11:43:51.310Z,9.99
2017-05-08T11:44:51.933Z,10.09
2017-05-08T11:45:52.554Z,10.20
2017-05-08T11:46:53.167Z,10.22
2017-05-08T11:47:53.783Z,10.10
2017-05-08T11:48:54.401Z,10.20
2017-05-08T11:49:55.019Z,10.35
2017-05-08T11:50:55.638Z,10.37
2017-05-08T11:51:56.254Z,10.33
2017-05-08T11:52:56.906Z,10.34
2017-05-08T11:53:57.557Z,10.46
2017-05-08T11:54:58.175Z,10.48
2017-05-08T11:55:58.796Z,10.35
2017-05-08T11:56:59.409Z,10.41
2017-05-08T11:58:00.029Z,10.33
2017-05-08T11:59:00.644Z,10.37
2017-05-08T12:00:01.263Z,10.38
2017-05-08T12:01:01.879Z,10.34
2017-05-08T12:02:02.496Z,10.53
2017-05-08T12:03:03.151Z,10.67
2017-05-08T12:04:03.768Z,10.89
2017-05-08T12:05:04.384Z,10.84
2017-05-08T12:06:05.041Z,10.78
2017-05-08T12:07:05.663Z,10.74
2017-05-08T12:08:06.318Z,10.67
2017-05-08T12:09:06.983Z,10.64
2017-05-08T12:10:07.602Z,10.54
2017-05-08T12:11:08.222Z,10.54
2017-05-08T12:12:08.841Z,10.59
2017-05-08T12:13:09.453Z,10.57
2017-05-08T12:14:10.102Z,10.40
2017-05-08T12:15:10.751Z,10.23
2017-05-08T12:16:11.368Z,10.01
2017-05-08T12:17:11.987Z,10.04
2017-05-08T12:18:12.605Z,10.26
2017-05-08T12:19:13.224Z,10.49
2017-05-08T12:20:13.839Z,10.51
2017-05-08T12:21:14.458Z,10.64
2017-05-08T12:22:15.079Z,10.69
2017-05-08T12:23:15.696Z,10.60
2017-05-08T12:24:16.614Z,10.49
2017-05-08T12:25:17.238Z,10.57
2017-05-08T12:26:17.888Z,10.63
2017-05-08T12:27:18.507Z,10.72
2017-05-08T12:28:19.127Z,10.71
2017-05-08T12:29:20.049Z,10.63
2017-05-08T12:30:20.670Z,10.61
2017-05-08T12:31:21.287Z,10.68
2017-05-08T12:32:21.910Z,10.74
2017-05-08T12:33:22.527Z,10.84
2017-05-08T12:34:23.143Z,10.94
2017-05-08T12:35:23.762Z,11.05
2017-05-08T12:36:24.382Z,10.92
2017-05-08T12:37:25.000Z,10.82
2017-05-08T12:38:25.617Z,10.74
2017-05-08T12:39:26.485Z,10.63
2017-05-08T12:40:27.109Z,10.74
2017-05-08T12:41:27.724Z,10.82
2017-05-08T12:42:28.341Z,10.74
2017-05-08T12:43:28.959Z,10.64
2017-05-08T12:44:29.877Z,10.54
2017-05-08T12:45:30.502Z,10.41
2017-05-08T12:46:31.116Z,10.16
2017-05-08T12:47:31.734Z,10.19
2017-05-08T12:48:32.358Z,10.19
2017-05-08T12:49:33.272Z,10.17
2017-05-08T12:50:33.891Z,10.30
2017-05-08T12:51:34.516Z,10.51
2017-05-08T12:52:35.129Z,10.57
2017-05-08T12:53:35.746Z,10.68
2017-05-08T12:54:36.417Z,10.78
2017-05-08T12:55:37.031Z,10.79
2017-05-08T12:56:37.653Z,10.75
2017-05-08T12:57:38.269Z,10.81
2017-05-08T12:58:38.889Z,10.92
2017-05-08T12:59:39.541Z,10.87
2017-05-08T13:00:40.161Z,10.76
2017-05-08T13:01:40.779Z,10.67
2017-05-08T13:02:41.399Z,10.67
2017-05-08T13:03:42.016Z,10.68
2017-05-08T13:04:42.685Z,10.87
2017-05-08T13:05:43.307Z,10.87
2017-05-08T13:06:43.957Z,10.89
2017-05-08T13:07:44.574Z,10.96
2017-05-08T13:08:45.190Z,10.90
2017-05-08T13:09:45.816Z,10.68
2017-05-08T13:10:46.468Z,10.61
2017-05-08T13:11:47.120Z,10.69
2017-05-08T13:12:47.738Z,10.61
2017-05-08T13:13:48.355Z,10.64
2017-05-08T13:14:48.974Z,10.57
2017-05-08T13:15:49.592Z,10.61
2017-05-08T13:16:50.213Z,10.69
2017-05-08T13:17:50.830Z,10.94
2017-05-08T13:18:51.448Z,11.02
2017-05-08T13:19:52.066Z,10.82
2017-05-08T13:20:52.686Z,10.60
2017-05-08T13:21:53.304Z,10.41
2017-05-08T13:22:53.926Z,10.33